createdAt,value
2019-05-10T00:01:04.067Z,47.93
2019-05-10T00:03:52.374Z,48.73
2019-05-10T00:06:40.706Z,47.43
2019-05-10T00:09:10.859Z,49.33
2019-05-10T00:12:19.086Z,46.57
2019-05-10T00:14:52.211Z,48.77
2019-05-10T00:17:23.828Z,49.67
2019-05-10T00:19:55.312Z,51.23
2019-05-10T00:22:26.464Z,51.70
2019-05-10T00:25:03.814Z,54.10
2019-05-10T00:27:30.221Z,58.27
2019-05-10T00:30:01.360Z,54.93
2019-05-10T00:32:32.569Z,52.50
2019-05-10T00:35:03.752Z,54.03
2019-05-10T00:37:35.435Z,52.17
2019-05-10T00:40:08.165Z,55.10
2019-05-10T00:42:39.404Z,54.43
2019-05-10T00:45:10.621Z,52.07
2019-05-10T00:47:42.062Z,52.87
2019-05-10T00:50:13.771Z,52.60
2019-05-10T00:52:44.954Z,56.53
2019-05-10T00:55:18.835Z,57.37
2019-05-10T00:57:49.674Z,58.73
2019-05-10T01:00:20.997Z,58.03
2019-05-10T01:02:52.069Z,52.77
2019-05-10T01:05:22.971Z,54.17
2019-05-10T01:07:54.020Z,54.80
2019-05-10T01:10:25.669Z,53.87
2019-05-10T01:12:56.773Z,56.37
2019-05-10T01:15:27.788Z,56.30
2019-05-10T01:17:58.873Z,52.20
2019-05-10T01:20:29.968Z,48.73
2019-05-10T01:23:01.163Z,51.47
2019-05-10T01:25:35.634Z,50.60
2019-05-10T01:28:06.360Z,51.27
2019-05-10T01:30:37.387Z,53.10
2019-05-10T01:33:08.382Z,54.50
2019-05-10T01:35:39.455Z,49.43
2019-05-10T01:38:10.483Z,54.87
2019-05-10T01:40:41.593Z,53.23
2019-05-10T01:43:13.265Z,53.80
2019-05-10T01:45:44.371Z,55.23
2019-05-10T01:48:16.095Z,54.03
2019-05-10T01:50:47.005Z,54.97
2019-05-10T01:53:18.734Z,59.00
2019-05-10T01:55:52.606Z,60.60
2019-05-10T01:58:23.195Z,66.27
2019-05-10T02:00:54.753Z,66.70
2019-05-10T02:03:26.339Z,65.37
2019-05-10T02:05:57.411Z,68.53
2019-05-10T02:08:28.620Z,69.70
2019-05-10T02:11:01.227Z,67.77
2019-05-10T02:13:32.279Z,64.80
2019-05-10T02:16:03.282Z,65.60
2019-05-10T02:18:34.392Z,66.07
2019-05-10T02:21:05.375Z,66.30
2019-05-10T02:23:36.416Z,66.67
2019-05-10T02:26:09.791Z,63.20
2019-05-10T02:28:40.161Z,67.13
2019-05-10T02:31:11.334Z,63.87
2019-05-10T02:33:42.322Z,60.13
2019-05-10T02:36:13.347Z,57.53
2019-05-10T02:38:44.347Z,63.87
2019-05-10T02:41:15.369Z,62.87
2019-05-10T02:43:46.582Z,61.87
2019-05-10T02:46:17.753Z,60.77
2019-05-10T02:48:48.774Z,66.20
2019-05-10T02:51:19.722Z,67.80
2019-05-10T02:53:51.000Z,63.27
2019-05-10T02:56:30.245Z,60.53
2019-05-10T02:58:57.715Z,60.20
2019-05-10T03:01:31.611Z,53.37
2019-05-10T03:04:04.399Z,54.07
2019-05-10T03:06:36.578Z,53.57
2019-05-10T03:09:09.538Z,55.20
2019-05-10T03:11:48.415Z,53.67
2019-05-10T03:14:20.864Z,52.27
2019-05-10T03:16:53.077Z,48.63
2019-05-10T03:19:25.022Z,43.33
2019-05-10T03:22:07.486Z,45.73
2019-05-10T03:24:39.282Z,49.13
2019-05-10T03:27:10.976Z,46.80
2019-05-10T03:29:42.653Z,48.70
2019-05-10T03:32:14.322Z,47.50
2019-05-10T03:34:45.446Z,45.67
2019-05-10T03:37:16.682Z,47.93
2019-05-10T03:39:48.337Z,50.53
2019-05-10T03:42:19.896Z,48.63
2019-05-10T03:44:51.613Z,50.60
2019-05-10T03:47:23.257Z,50.57
2019-05-10T03:49:54.935Z,48.03
2019-05-10T03:52:27.621Z,46.83
2019-05-10T03:54:59.235Z,46.00
2019-05-10T03:57:31.071Z,40.37
2019-05-10T04:00:03.192Z,36.73
2019-05-10T04:02:35.752Z,37.07
2019-05-10T04:05:09.868Z,40.80
2019-05-10T04:07:41.483Z,44.50
2019-05-10T04:10:13.845Z,40.20
2019-05-10T04:12:46.671Z,40.57
2019-05-10T04:15:18.778Z,41.10
2019-05-10T04:17:50.743Z,43.90
2019-05-10T04:20:22.622Z,43.60
2019-05-10T04:22:54.582Z,42.40
2019-05-10T04:25:26.339Z,44.00
2019-05-10T04:27:57.981Z,45.97
2019-05-10T04:30:31.904Z,42.83
2019-05-10T04:33:02.937Z,44.17
2019-05-10T04:35:34.864Z,41.13
2019-05-10T04:38:11.206Z,40.87
2019-05-10T04:40:55.939Z,43.03
2019-05-10T04:43:27.417Z,42.77
2019-05-10T04:45:59.874Z,45.90
2019-05-10T04:48:32.501Z,42.30
2019-05-10T04:51:04.594Z,45.47
2019-05-10T04:53:36.376Z,46.70
2019-05-10T04:56:08.257Z,44.70
2019-05-10T04:58:40.276Z,47.00
2019-05-10T05:01:12.384Z,43.67
2019-05-10T05:03:44.663Z,44.30
2019-05-10T05:06:16.258Z,44.53
2019-05-10T05:08:47.335Z,43.77
2019-05-10T05:11:22.314Z,40.37
2019-05-10T05:13:54.193Z,43.33
2019-05-10T05:16:25.195Z,46.47
2019-05-10T05:18:57.184Z,47.33
2019-05-10T05:21:28.970Z,48.20
2019-05-10T05:24:00.083Z,46.53
2019-05-10T05:26:31.183Z,44.47
2019-05-10T05:29:02.747Z,47.87
2019-05-10T05:31:33.978Z,45.57
2019-05-10T05:34:06.410Z,41.10
2019-05-10T05:36:38.168Z,40.47
2019-05-10T05:39:09.818Z,41.80
2019-05-10T05:41:49.100Z,42.10
2019-05-10T05:44:15.114Z,35.43
2019-05-10T05:46:46.944Z,44.30
2019-05-10T05:49:18.773Z,42.67
2019-05-10T05:51:50.518Z,42.40
2019-05-10T05:54:22.687Z,43.43
2019-05-10T05:56:55.639Z,40.57
2019-05-10T05:59:27.302Z,38.13
2019-05-10T06:02:00.470Z,42.03
2019-05-10T06:04:33.104Z,43.30
2019-05-10T06:07:04.740Z,44.77
2019-05-10T06:09:37.869Z,40.87
2019-05-10T06:12:12.555Z,45.47
2019-05-10T06:14:49.636Z,44.77
2019-05-10T06:17:18.266Z,40.13
2019-05-10T06:19:49.791Z,40.47
2019-05-10T06:22:21.915Z,39.57
2019-05-10T06:24:53.988Z,41.40
2019-05-10T06:27:26.162Z,40.43
2019-05-10T06:29:58.413Z,38.57
2019-05-10T06:32:30.581Z,40.77
2019-05-10T06:35:03.607Z,37.43
2019-05-10T06:37:36.718Z,37.43
2019-05-10T06:40:08.916Z,39.37
2019-05-10T06:42:41.060Z,42.13
2019-05-10T06:45:16.039Z,40.63
2019-05-10T06:47:49.122Z,40.23
2019-05-10T06:50:29.125Z,39.87
2019-05-10T06:52:54.105Z,39.60
2019-05-10T06:55:26.388Z,38.20
2019-05-10T06:58:00.681Z,38.87
2019-05-10T07:00:32.300Z,41.07
2019-05-10T07:03:04.621Z,37.47
2019-05-10T07:05:36.801Z,38.77
2019-05-10T07:08:16.419Z,37.63
2019-05-10T07:10:42.444Z,38.77
2019-05-10T07:13:14.562Z,34.73
2019-05-10T07:15:46.605Z,33.13
2019-05-10T07:18:22.500Z,34.77
2019-05-10T07:20:52.443Z,32.70
2019-05-10T07:23:24.620Z,36.77
2019-05-10T07:25:57.042Z,34.53
2019-05-10T07:28:29.305Z,34.67
2019-05-10T07:31:00.960Z,33.30
2019-05-10T07:33:37.228Z,35.07
2019-05-10T07:36:14.468Z,34.37
2019-05-10T07:38:38.813Z,34.27
2019-05-10T07:41:11.603Z,32.63
2019-05-10T07:43:47.440Z,32.30
2019-05-10T07:46:17.350Z,32.43
2019-05-10T07:48:53.381Z,33.07
2019-05-10T07:51:28.326Z,35.07
2019-05-10T07:53:56.944Z,33.37
2019-05-10T07:56:30.113Z,31.87
2019-05-10T07:59:01.793Z,30.87
2019-05-10T08:01:34.919Z,29.27
2019-05-10T08:04:08.989Z,30.30
2019-05-10T08:06:47.636Z,28.47
2019-05-10T08:09:15.149Z,28.03
2019-05-10T08:11:48.489Z,28.03
2019-05-10T08:14:20.779Z,28.10
2019-05-10T08:16:58.310Z,28.30
2019-05-10T08:19:26.245Z,29.03
2019-05-10T08:22:01.868Z,29.87
2019-05-10T08:24:32.760Z,29.17
2019-05-10T08:27:11.506Z,28.00
2019-05-10T08:29:39.525Z,28.57
2019-05-10T08:32:12.821Z,29.33
2019-05-10T08:34:52.064Z,27.83
2019-05-10T08:37:30.375Z,28.37
2019-05-10T08:39:56.010Z,28.73
2019-05-10T08:42:40.884Z,28.10
2019-05-10T08:45:05.454Z,28.07
2019-05-10T08:47:33.842Z,28.13
2019-05-10T08:50:22.448Z,27.27
2019-05-10T08:52:42.107Z,26.80
2019-05-10T08:55:13.411Z,26.40
2019-05-10T08:57:49.084Z,26.37
2019-05-10T09:00:38.370Z,25.77
2019-05-10T09:02:53.309Z,27.50
2019-05-10T09:05:28.813Z,26.80
2019-05-10T09:08:04.872Z,29.23
2019-05-10T09:10:33.576Z,26.63
2019-05-10T09:13:05.486Z,27.40
2019-05-10T09:15:43.152Z,25.10
2019-05-10T09:18:12.847Z,26.20
2019-05-10T09:20:45.139Z,24.73
2019-05-10T09:23:20.064Z,25.37
2019-05-10T09:25:51.981Z,23.07
2019-05-10T09:28:24.085Z,25.13
2019-05-10T09:31:01.213Z,25.50
2019-05-10T09:33:31.893Z,26.03
2019-05-10T09:36:04.049Z,24.07
2019-05-10T09:38:39.246Z,24.93
2019-05-10T09:41:11.777Z,24.37
2019-05-10T09:43:48.804Z,24.87
2019-05-10T09:46:22.760Z,23.47
2019-05-10T09:49:03.978Z,22.93
2019-05-10T09:51:30.153Z,23.40
2019-05-10T09:54:01.242Z,23.63
2019-05-10T09:56:39.517Z,24.17
2019-05-10T09:59:08.243Z,24.27
2019-05-10T10:01:41.029Z,21.87
2019-05-10T10:04:14.457Z,23.27
2019-05-10T10:06:48.213Z,20.47
2019-05-10T10:09:24.460Z,19.63
2019-05-10T10:11:58.127Z,18.03
2019-05-10T10:14:28.358Z,19.60
2019-05-10T10:17:03.141Z,19.90
2019-05-10T10:19:34.091Z,20.47
2019-05-10T10:22:11.198Z,19.47
2019-05-10T10:24:41.233Z,19.53
2019-05-10T10:27:13.421Z,19.77
2019-05-10T10:29:47.483Z,20.03
2019-05-10T10:32:19.170Z,20.07
2019-05-10T10:34:54.551Z,20.10
2019-05-10T10:37:29.040Z,20.80
2019-05-10T10:40:00.603Z,22.30
2019-05-10T10:42:38.144Z,21.47
2019-05-10T10:45:09.938Z,19.80
2019-05-10T10:47:42.037Z,19.57
2019-05-10T10:50:14.330Z,20.13
2019-05-10T10:52:46.403Z,19.47
2019-05-10T10:55:18.787Z,15.90
2019-05-10T10:57:50.955Z,16.53
2019-05-10T11:00:33.435Z,16.70
2019-05-10T11:03:06.738Z,17.17
2019-05-10T11:05:38.697Z,17.27
2019-05-10T11:08:11.249Z,17.03
2019-05-10T11:10:43.595Z,18.00
2019-05-10T11:13:23.773Z,16.73
2019-05-10T11:15:51.539Z,16.10
2019-05-10T11:18:23.544Z,17.10
2019-05-10T11:20:55.434Z,16.90
2019-05-10T11:23:36.681Z,17.03
2019-05-10T11:26:01.563Z,16.50
2019-05-10T11:28:38.827Z,16.17
2019-05-10T11:31:07.653Z,14.73
2019-05-10T11:33:41.574Z,15.37
2019-05-10T11:36:13.517Z,16.20
2019-05-10T11:38:47.128Z,16.37
2019-05-10T11:41:23.763Z,15.20
2019-05-10T11:43:57.946Z,14.43
2019-05-10T11:46:28.135Z,16.23
2019-05-10T11:49:01.760Z,16.30
2019-05-10T11:51:34.394Z,14.40
2019-05-10T11:54:06.970Z,14.27
2019-05-10T11:56:41.068Z,14.10
2019-05-10T11:59:16.486Z,15.47
2019-05-10T12:06:56.731Z,12.67
2019-05-10T12:09:31.516Z,12.57
2019-05-10T12:12:03.448Z,12.47
2019-05-10T12:14:36.736Z,11.47
2019-05-10T12:17:13.817Z,10.60
2019-05-10T12:19:47.742Z,12.53
2019-05-10T12:22:16.218Z,11.90
2019-05-10T12:25:13.054Z,13.77
2019-05-10T12:26:17.832Z,14.67
2019-05-10T12:26:19.634Z,12.90
2019-05-10T12:27:28.809Z,12.77
2019-05-10T12:30:00.703Z,12.33
2019-05-10T12:32:33.495Z,12.30
2019-05-10T12:35:05.462Z,12.07
2019-05-10T12:37:39.677Z,12.40
2019-05-10T12:40:14.848Z,11.27
2019-05-10T12:42:47.191Z,10.77
2019-05-10T12:45:22.907Z,11.40
2019-05-10T12:47:52.135Z,10.93
2019-05-10T12:50:24.678Z,11.27
2019-05-10T12:53:03.852Z,11.53
2019-05-10T12:55:30.072Z,10.73
2019-05-10T12:58:02.289Z,10.17
2019-05-10T13:00:34.475Z,11.23
2019-05-10T13:03:12.569Z,11.00
2019-05-10T13:05:52.199Z,12.00
2019-05-10T13:08:13.403Z,11.53
2019-05-10T13:10:49.377Z,11.03
2019-05-10T13:13:23.690Z,11.37
2019-05-10T13:15:53.084Z,11.43
2019-05-10T13:18:48.207Z,11.57
2019-05-10T13:20:58.363Z,11.93
2019-05-10T13:23:30.387Z,11.53
2019-05-10T13:26:02.685Z,10.77
2019-05-10T13:28:34.954Z,11.07
2019-05-10T13:31:07.197Z,21.40
2019-05-10T13:33:42.068Z,22.53
2019-05-10T13:36:12.370Z,20.13
2019-05-10T13:38:49.051Z,20.37
2019-05-10T13:41:17.780Z,22.70
2019-05-10T13:43:53.589Z,23.87
2019-05-10T13:46:25.818Z,23.73
2019-05-10T13:48:57.769Z,26.97
2019-05-10T13:51:29.486Z,26.97
2019-05-10T13:54:04.555Z,27.50
2019-05-10T13:56:35.073Z,25.43
2019-05-10T13:59:15.613Z,26.33
2019-05-10T14:01:44.195Z,27.43
2019-05-10T14:04:13.417Z,27.57
2019-05-10T14:06:44.734Z,28.83
2019-05-10T14:09:16.195Z,28.70
2019-05-10T14:11:48.255Z,30.70
2019-05-10T14:14:20.374Z,28.93
2019-05-10T14:16:53.399Z,29.20
2019-05-10T14:19:25.536Z,29.73
2019-05-10T14:21:57.617Z,29.00
2019-05-10T14:24:29.259Z,29.27
2019-05-10T14:27:01.091Z,28.80
2019-05-10T14:29:36.549Z,30.23
2019-05-10T14:32:06.140Z,30.07
2019-05-10T14:34:43.341Z,31.57
2019-05-10T14:37:14.213Z,29.60
2019-05-10T14:39:44.058Z,28.60
2019-05-10T14:42:15.207Z,28.97
2019-05-10T14:44:46.258Z,28.40
2019-05-10T14:47:22.422Z,29.00
2019-05-10T14:49:54.732Z,29.90
2019-05-10T14:52:26.321Z,28.17
2019-05-10T14:54:58.792Z,27.03
2019-05-10T14:57:30.333Z,27.70
2019-05-10T15:00:03.791Z,27.83
2019-05-10T15:02:37.250Z,26.43
2019-05-10T15:05:15.976Z,26.17
2019-05-10T15:07:45.752Z,27.00
2019-05-10T15:10:17.704Z,26.63
2019-05-10T15:12:50.398Z,27.30
2019-05-10T15:15:21.711Z,25.07
2019-05-10T15:18:02.004Z,26.30
2019-05-10T15:20:27.277Z,26.37
2019-05-10T15:23:01.853Z,24.37
2019-05-10T15:25:33.975Z,25.67
2019-05-10T15:28:06.139Z,27.00
2019-05-10T15:30:39.122Z,25.13
2019-05-10T15:33:11.284Z,25.70
2019-05-10T15:35:45.653Z,26.17
2019-05-10T15:38:17.475Z,25.33
2019-05-10T15:40:50.878Z,24.80
2019-05-10T15:43:22.670Z,26.73
2019-05-10T15:45:55.059Z,26.50
2019-05-10T15:48:26.923Z,25.37
2019-05-10T15:50:58.596Z,26.13
2019-05-10T15:53:30.327Z,27.03
2019-05-10T15:56:03.920Z,26.00
2019-05-10T15:58:36.681Z,27.43
2019-05-10T16:01:08.645Z,26.03
2019-05-10T16:03:40.677Z,26.83
2019-05-10T16:06:12.490Z,27.90
2019-05-10T16:08:44.274Z,26.07
2019-05-10T16:11:18.884Z,26.00
2019-05-10T16:13:49.345Z,25.93
2019-05-10T16:16:20.525Z,26.50
2019-05-10T16:18:52.351Z,26.93
2019-05-10T16:21:24.037Z,27.93
2019-05-10T16:23:55.600Z,26.67
2019-05-10T16:26:27.298Z,25.20
2019-05-10T16:29:02.146Z,25.77
2019-05-10T16:31:32.457Z,27.03
2019-05-10T16:34:04.778Z,25.07
2019-05-10T16:36:36.703Z,25.73
2019-05-10T16:39:08.952Z,25.10
2019-05-10T16:41:40.677Z,26.87
2019-05-10T16:44:12.594Z,25.03
2019-05-10T16:46:44.255Z,24.77
2019-05-10T16:49:17.349Z,26.47
2019-05-10T16:51:49.973Z,25.47
2019-05-10T16:54:25.218Z,26.40
2019-05-10T16:56:59.594Z,25.60
2019-05-10T16:59:29.842Z,25.33
2019-05-10T17:02:04.153Z,25.80
2019-05-10T17:04:37.858Z,24.77
2019-05-10T17:07:12.903Z,24.70
2019-05-10T17:09:40.860Z,24.27
2019-05-10T17:12:12.211Z,26.53
2019-05-10T17:14:44.588Z,25.87
2019-05-10T17:17:16.182Z,24.73
2019-05-10T17:20:14.275Z,26.60
2019-05-10T17:23:07.628Z,26.63
2019-05-10T17:25:25.890Z,25.63
2019-05-10T17:27:58.012Z,24.97
2019-05-10T17:30:30.656Z,25.17
2019-05-10T17:33:03.892Z,26.73
2019-05-10T17:35:36.652Z,25.73
2019-05-10T17:38:14.081Z,25.77
2019-05-10T17:40:42.340Z,27.13
2019-05-10T17:43:20.939Z,27.17
2019-05-10T17:45:47.973Z,26.37
2019-05-10T17:48:19.818Z,28.17
2019-05-10T17:50:51.698Z,28.40
2019-05-10T17:53:23.209Z,29.17
2019-05-10T17:55:56.062Z,28.37
2019-05-10T17:58:33.212Z,28.97
2019-05-10T18:01:00.377Z,29.20
2019-05-10T18:03:31.525Z,29.40
2019-05-10T18:06:02.688Z,30.20
2019-05-10T18:08:33.891Z,31.10
2019-05-10T18:11:06.247Z,31.50
2019-05-10T18:13:40.930Z,34.17
2019-05-10T18:16:10.983Z,34.67
2019-05-10T18:18:46.641Z,35.63
2019-05-10T18:21:21.575Z,31.73
2019-05-10T18:23:52.470Z,32.20
2019-05-10T18:26:20.680Z,31.33
2019-05-10T18:28:51.794Z,30.43
2019-05-10T18:31:22.830Z,32.30
2019-05-10T18:33:55.793Z,29.70
2019-05-10T18:36:50.020Z,30.17
2019-05-10T18:38:59.558Z,30.23
2019-05-10T18:41:30.662Z,19.50
2019-05-10T18:44:01.596Z,13.07
2019-05-10T18:46:32.863Z,14.75
2019-05-10T18:49:03.872Z,16.47
2019-05-10T18:51:35.185Z,7.00
2019-05-10T18:54:06.512Z,7.53
2019-05-10T18:56:38.173Z,9.60
2019-05-10T18:59:10.222Z,6.67
2019-05-10T19:01:41.552Z,5.83
2019-05-10T19:04:14.422Z,6.27
2019-05-10T19:06:50.198Z,7.43
2019-05-10T19:09:19.742Z,5.83
2019-05-10T19:11:51.043Z,5.07
2019-05-10T19:14:23.988Z,7.00
2019-05-10T19:16:56.769Z,17.13
2019-05-10T19:19:28.410Z,10.67
2019-05-10T19:22:03.089Z,5.57
2019-05-10T19:24:33.238Z,19.40
2019-05-10T19:27:07.326Z,19.20
2019-05-10T19:29:38.849Z,9.33
2019-05-10T19:32:17.814Z,9.00
2019-05-10T19:34:48.385Z,5.63
2019-05-10T19:37:29.727Z,7.50
2019-05-10T19:39:49.989Z,8.10
2019-05-10T19:42:21.668Z,8.57
2019-05-10T19:44:53.219Z,9.33
2019-05-10T19:47:24.851Z,8.77
2019-05-10T19:49:56.401Z,11.20
2019-05-10T19:52:28.040Z,11.97
2019-05-10T19:54:59.626Z,12.57
2019-05-10T19:57:31.779Z,15.60
2019-05-10T20:00:03.612Z,25.40
2019-05-10T20:02:36.692Z,17.03
2019-05-10T20:05:08.053Z,16.10
2019-05-10T20:07:45.933Z,14.80
2019-05-10T20:10:12.045Z,17.40
2019-05-10T20:12:43.681Z,19.37
2019-05-10T20:15:14.913Z,19.27
2019-05-10T20:17:49.876Z,16.60
2019-05-10T20:20:20.944Z,17.30
2019-05-10T20:22:53.020Z,18.33
2019-05-10T20:25:24.580Z,22.40
2019-05-10T20:27:56.536Z,48.87
2019-05-10T20:30:28.324Z,25.20
2019-05-10T20:33:01.192Z,34.67
2019-05-10T20:35:32.268Z,20.37
2019-05-10T20:38:03.936Z,19.67
2019-05-10T20:40:37.230Z,21.47
2019-05-10T20:43:09.023Z,22.57
2019-05-10T20:45:40.399Z,22.40
2019-05-10T20:48:11.572Z,24.40
2019-05-10T20:50:43.166Z,22.20
2019-05-10T20:53:14.988Z,29.40
2019-05-10T20:55:46.726Z,19.90
2019-05-10T20:58:17.931Z,20.30
2019-05-10T21:00:49.089Z,20.13
2019-05-10T21:03:21.174Z,19.60
2019-05-10T21:05:52.142Z,22.90
2019-05-10T21:08:23.831Z,18.80
2019-05-10T21:10:54.812Z,20.07
2019-05-10T21:13:25.930Z,26.23
2019-05-10T21:15:57.111Z,31.93
2019-05-10T21:18:28.984Z,32.37
2019-05-10T21:21:00.715Z,30.67
2019-05-10T21:23:31.751Z,24.00
2019-05-10T21:26:02.738Z,28.33
2019-05-10T21:28:33.695Z,20.90
2019-05-10T21:31:04.628Z,22.33
2019-05-10T21:33:36.360Z,19.83
2019-05-10T21:36:07.376Z,23.10
2019-05-10T21:38:41.652Z,24.30
2019-05-10T21:41:11.584Z,60.30
2019-05-10T21:43:43.264Z,51.43
2019-05-10T21:46:14.435Z,43.83
2019-05-10T21:48:45.423Z,65.63
2019-05-10T21:51:16.566Z,41.83
2019-05-10T21:53:48.201Z,47.77
2019-05-10T21:56:19.275Z,41.17
2019-05-10T21:58:50.297Z,41.77
2019-05-10T22:01:21.515Z,51.20
2019-05-10T22:03:53.210Z,37.00
2019-05-10T22:06:24.298Z,31.30
2019-05-10T22:08:55.237Z,35.73
2019-05-10T22:11:26.256Z,32.17
2019-05-10T22:13:57.909Z,28.77
2019-05-10T22:16:29.962Z,32.07
2019-05-10T22:19:02.559Z,28.20
2019-05-10T22:21:33.755Z,28.10
2019-05-10T22:24:06.244Z,55.47
2019-05-10T22:26:37.339Z,36.83
2019-05-10T22:29:08.518Z,57.77
2019-05-10T22:31:39.601Z,30.70
2019-05-10T22:34:10.798Z,53.93
2019-05-10T22:36:41.759Z,44.07
2019-05-10T22:39:12.760Z,53.40
2019-05-10T22:41:44.497Z,36.43
2019-05-10T22:44:15.665Z,34.37
2019-05-10T22:46:47.385Z,29.10
2019-05-10T22:49:18.570Z,30.37
2019-05-10T22:51:49.601Z,32.20
2019-05-10T22:54:21.587Z,31.90
2019-05-10T22:56:52.539Z,28.80
2019-05-10T22:59:23.594Z,27.83
2019-05-10T23:01:55.497Z,24.87
2019-05-10T23:04:27.058Z,23.33
2019-05-10T23:07:01.265Z,21.63
2019-05-10T23:09:32.820Z,20.97
2019-05-10T23:12:03.768Z,19.70
2019-05-10T23:14:35.544Z,19.20
2019-05-10T23:17:06.723Z,20.63
2019-05-10T23:19:38.674Z,22.47
2019-05-10T23:22:09.752Z,20.47
2019-05-10T23:24:40.729Z,20.47
2019-05-10T23:27:12.195Z,23.57
2019-05-10T23:29:43.844Z,23.87
2019-05-10T23:32:15.412Z,24.50
2019-05-10T23:34:46.560Z,23.93
2019-05-10T23:37:18.185Z,25.17
2019-05-10T23:39:49.243Z,23.77
2019-05-10T23:42:20.356Z,24.50
2019-05-10T23:44:51.573Z,24.67
2019-05-10T23:47:22.492Z,24.23
2019-05-10T23:49:54.220Z,24.13
2019-05-10T23:52:26.002Z,24.70
2019-05-10T23:54:59.396Z,23.10
2019-05-10T23:57:30.412Z,23.60
